createdAt,value
2018-10-16T00:04:08.712Z,7
2018-10-16T00:09:11.162Z,7
2018-10-16T00:14:13.603Z,7
2018-10-16T00:19:16.027Z,7
2018-10-16T00:24:18.486Z,7
2018-10-16T00:29:20.911Z,6
2018-10-16T00:34:23.380Z,6
2018-10-16T00:39:25.800Z,6
2018-10-16T00:44:28.226Z,6
2018-10-16T00:49:30.714Z,6
2018-10-16T00:54:33.109Z,7
2018-10-16T00:59:35.547Z,7
2018-10-16T01:04:37.980Z,7
2018-10-16T01:09:40.439Z,7
2018-10-16T01:14:42.873Z,7
2018-10-16T01:19:45.309Z,8
2018-10-16T01:24:47.755Z,7
2018-10-16T01:29:50.190Z,7
2018-10-16T01:34:52.629Z,7
2018-10-16T01:39:55.077Z,6
2018-10-16T01:44:57.509Z,7
2018-10-16T01:50:00.083Z,7
2018-10-16T01:55:02.400Z,7
2018-10-16T02:00:04.891Z,8
2018-10-16T02:05:07.278Z,7
2018-10-16T02:10:09.754Z,7
2018-10-16T02:15:12.198Z,6
2018-10-16T02:20:14.610Z,7
2018-10-16T02:25:17.045Z,7
2018-10-16T02:30:19.500Z,7
2018-10-16T02:35:21.957Z,7
2018-10-16T02:40:24.369Z,7
2018-10-16T02:45:26.807Z,7
2018-10-16T02:50:29.258Z,8
2018-10-16T02:55:31.725Z,7
2018-10-16T03:00:34.117Z,8
2018-10-16T03:05:36.549Z,7
2018-10-16T03:10:39.002Z,7
2018-10-16T03:15:41.473Z,8
2018-10-16T03:20:43.906Z,8
2018-10-16T03:25:46.325Z,7
2018-10-16T03:30:48.764Z,8
2018-10-16T03:35:51.220Z,8
2018-10-16T03:40:53.633Z,8
2018-10-16T03:45:56.097Z,8
2018-10-16T03:50:58.635Z,8
2018-10-16T03:56:01.003Z,8
2018-10-16T04:01:03.421Z,9
2018-10-16T04:06:05.890Z,10
2018-10-16T04:11:08.363Z,8
2018-10-16T04:16:10.718Z,8
2018-10-16T04:21:13.294Z,7
2018-10-16T04:26:15.668Z,7
2018-10-16T04:31:18.061Z,7
2018-10-16T04:36:20.516Z,7
2018-10-16T04:41:22.932Z,7
2018-10-16T04:46:25.361Z,7
2018-10-16T04:51:27.801Z,7
2018-10-16T04:56:30.236Z,7
2018-10-16T05:01:32.695Z,7
2018-10-16T05:06:35.121Z,7
2018-10-16T05:11:37.582Z,7
2018-10-16T05:16:40.046Z,8
2018-10-16T05:21:42.505Z,7
2018-10-16T05:26:44.933Z,7
2018-10-16T05:31:47.394Z,7
2018-10-16T05:36:49.771Z,7
2018-10-16T05:41:52.207Z,7
2018-10-16T05:46:54.652Z,7
2018-10-16T05:51:57.093Z,8
2018-10-16T05:56:59.528Z,8
2018-10-16T06:02:02.012Z,7
2018-10-16T06:07:04.418Z,8
2018-10-16T06:12:06.887Z,8
2018-10-16T06:17:09.447Z,8
2018-10-16T06:22:11.757Z,8
2018-10-16T06:27:14.182Z,8
2018-10-16T06:32:16.607Z,8
2018-10-16T06:37:19.043Z,8
2018-10-16T06:42:21.525Z,8
2018-10-16T06:47:24.057Z,8
2018-10-16T06:52:27.164Z,8
2018-10-16T06:57:28.820Z,8
2018-10-16T07:02:31.267Z,8
2018-10-16T07:07:33.745Z,8
2018-10-16T07:12:36.148Z,8
2018-10-16T07:17:38.578Z,8
2018-10-16T07:22:41.029Z,8
2018-10-16T07:27:43.465Z,8
2018-10-16T07:32:45.898Z,8
2018-10-16T07:37:48.360Z,8
2018-10-16T07:42:50.813Z,8
2018-10-16T07:47:53.233Z,7
2018-10-16T07:52:55.678Z,8
2018-10-16T07:57:58.120Z,8
2018-10-16T08:03:00.543Z,8
2018-10-16T08:08:03.008Z,8
2018-10-16T08:13:05.438Z,8
2018-10-16T08:18:07.860Z,8
2018-10-16T08:23:10.323Z,8
2018-10-16T08:28:12.757Z,8
2018-10-16T08:33:15.191Z,8
2018-10-16T08:38:17.637Z,7
2018-10-16T08:43:20.079Z,8
2018-10-16T08:48:22.511Z,8
2018-10-16T08:53:25.057Z,8
2018-10-16T08:58:27.400Z,13
2018-10-16T09:03:29.870Z,9
2018-10-16T09:08:32.288Z,8
2018-10-16T09:13:34.721Z,7
2018-10-16T09:18:37.163Z,8
2018-10-16T09:23:39.590Z,8
2018-10-16T09:28:42.042Z,7
2018-10-16T09:33:44.508Z,8
2018-10-16T09:38:46.928Z,7
2018-10-16T09:43:49.361Z,8
2018-10-16T09:48:51.801Z,7
2018-10-16T09:53:54.238Z,8
2018-10-16T09:58:56.732Z,8
2018-10-16T10:03:59.128Z,7
2018-10-16T10:09:01.561Z,7
2018-10-16T10:14:04.039Z,7
2018-10-16T10:19:06.439Z,7
2018-10-16T10:24:08.876Z,7
2018-10-16T10:29:11.321Z,7
2018-10-16T10:34:13.754Z,7
2018-10-16T10:39:16.212Z,8
2018-10-16T10:44:18.675Z,7
2018-10-16T10:49:21.087Z,8
2018-10-16T10:54:23.525Z,8
2018-10-16T10:59:25.969Z,8
2018-10-16T11:04:28.468Z,7
2018-10-16T11:14:33.334Z,7
2018-10-16T11:19:35.737Z,8
2018-10-16T11:24:38.174Z,8
2018-10-16T11:29:40.638Z,9
2018-10-16T11:34:43.054Z,8
2018-10-16T11:39:45.521Z,9
2018-10-16T11:44:47.931Z,9
2018-10-16T11:49:50.434Z,8
2018-10-16T11:54:52.842Z,8
2018-10-16T11:59:55.272Z,7
2018-10-16T12:04:57.715Z,8
2018-10-16T12:10:00.147Z,7
2018-10-16T12:15:02.607Z,7
2018-10-16T12:20:05.142Z,6
2018-10-16T12:25:07.534Z,8
2018-10-16T12:30:09.995Z,8
2018-10-16T12:35:12.370Z,7
2018-10-16T12:40:15.056Z,8
2018-10-16T12:45:17.244Z,7
2018-10-16T12:50:19.745Z,8
2018-10-16T12:55:22.236Z,10
2018-10-16T13:00:24.574Z,8
2018-10-16T13:05:27.009Z,8
2018-10-16T13:10:29.451Z,7
2018-10-16T13:15:31.962Z,8
2018-10-16T13:20:34.349Z,9
2018-10-16T13:25:36.774Z,9
2018-10-16T13:30:39.242Z,12
2018-10-16T13:35:41.929Z,11
2018-10-16T13:40:44.106Z,10
2018-10-16T13:50:49.332Z,10
2018-10-16T13:55:51.575Z,9
2018-10-16T14:00:53.864Z,9
2018-10-16T14:05:56.432Z,9
2018-10-16T14:10:58.859Z,8
2018-10-16T14:16:01.246Z,7
2018-10-16T14:21:03.657Z,8
2018-10-16T14:26:06.111Z,8
2018-10-16T14:31:08.522Z,9
2018-10-16T14:36:10.971Z,8
2018-10-16T14:41:13.398Z,9
2018-10-16T14:46:16.013Z,7
2018-10-16T14:51:18.294Z,7
2018-10-16T14:56:20.745Z,7
2018-10-16T15:01:23.181Z,7
2018-10-16T15:06:25.635Z,8
2018-10-16T15:11:28.049Z,9
2018-10-16T15:16:30.554Z,10
2018-10-16T15:21:32.929Z,10
2018-10-16T15:26:35.392Z,43
2018-10-16T15:31:37.833Z,16
2018-10-16T15:36:40.373Z,14
2018-10-16T15:41:42.698Z,12
2018-10-16T15:46:45.135Z,19
2018-10-16T15:51:47.624Z,24
2018-10-16T15:56:50.032Z,12
2018-10-16T16:01:52.507Z,16
2018-10-16T16:06:54.908Z,13
2018-10-16T16:11:57.394Z,11
2018-10-16T16:16:59.789Z,10
2018-10-16T16:22:02.262Z,12
2018-10-16T16:27:04.665Z,10
2018-10-16T16:32:07.178Z,11
2018-10-16T16:37:09.585Z,11
2018-10-16T16:42:12.057Z,10
2018-10-16T16:47:14.431Z,10
2018-10-16T16:52:16.900Z,11
2018-10-16T16:57:19.307Z,10
2018-10-16T17:02:21.755Z,12
2018-10-16T17:07:24.194Z,11
2018-10-16T17:12:26.738Z,11
2018-10-16T17:17:29.070Z,12
2018-10-16T17:22:31.523Z,13
2018-10-16T17:27:33.951Z,13
2018-10-16T17:32:36.391Z,13
2018-10-16T17:37:38.855Z,13
2018-10-16T17:42:41.277Z,13
2018-10-16T17:47:43.828Z,12
2018-10-16T17:52:46.151Z,12
2018-10-16T17:57:48.651Z,11
2018-10-16T18:02:51.037Z,13
2018-10-16T18:07:53.479Z,12
2018-10-16T18:12:55.920Z,12
2018-10-16T18:17:58.353Z,12
2018-10-16T18:23:00.867Z,13
2018-10-16T18:28:03.253Z,12
2018-10-16T18:33:05.737Z,13
2018-10-16T18:38:08.122Z,11
2018-10-16T18:43:10.558Z,12
2018-10-16T18:48:12.991Z,12
2018-10-16T18:53:15.442Z,22
2018-10-16T18:58:17.882Z,16
2018-10-16T19:03:20.325Z,20
2018-10-16T19:08:22.756Z,24
2018-10-16T19:13:25.238Z,20
2018-10-16T19:18:27.642Z,21
2018-10-16T19:23:30.103Z,18
2018-10-16T19:28:32.562Z,16
2018-10-16T19:33:34.957Z,18
2018-10-16T19:38:37.483Z,21
2018-10-16T19:43:39.837Z,21
2018-10-16T19:48:42.283Z,25
2018-10-16T19:53:44.733Z,24
2018-10-16T19:58:47.180Z,22
2018-10-16T20:03:49.615Z,22
2018-10-16T20:08:52.116Z,20
2018-10-16T20:13:54.500Z,16
2018-10-16T20:18:56.924Z,18
2018-10-16T20:23:59.384Z,18
2018-10-16T20:29:01.841Z,17
2018-10-16T20:34:04.254Z,17
2018-10-16T20:39:06.691Z,17
2018-10-16T20:44:09.301Z,16
2018-10-16T20:49:11.648Z,17
2018-10-16T20:54:14.121Z,17
2018-10-16T20:59:16.447Z,18
2018-10-16T21:04:18.879Z,17
2018-10-16T21:09:21.350Z,17
2018-10-16T21:14:23.771Z,18
2018-10-16T21:19:26.333Z,19
2018-10-16T21:24:28.650Z,20
2018-10-16T21:29:31.090Z,21
2018-10-16T21:34:33.522Z,19
2018-10-16T21:39:35.985Z,18
2018-10-16T21:44:38.409Z,21
2018-10-16T21:49:40.863Z,21
2018-10-16T21:54:43.299Z,18
2018-10-16T21:59:45.778Z,20
2018-10-16T22:04:48.159Z,20
2018-10-16T22:09:50.617Z,23
2018-10-16T22:14:53.053Z,21
2018-10-16T22:19:55.506Z,18
2018-10-16T22:24:57.959Z,18
2018-10-16T22:30:00.363Z,21
2018-10-16T22:35:02.841Z,20
2018-10-16T22:40:05.253Z,19
2018-10-16T22:45:07.694Z,17
2018-10-16T22:50:10.153Z,18
2018-10-16T22:55:12.725Z,20
2018-10-16T23:00:15.079Z,20
2018-10-16T23:05:17.549Z,18
2018-10-16T23:10:19.923Z,20
2018-10-16T23:15:22.343Z,22
2018-10-16T23:20:24.924Z,20
2018-10-16T23:25:27.227Z,22
2018-10-16T23:30:29.681Z,21
2018-10-16T23:35:32.099Z,19
2018-10-16T23:40:34.546Z,19
2018-10-16T23:45:36.989Z,18
2018-10-16T23:50:39.421Z,22
2018-10-16T23:55:41.859Z,21
